createdAt,value
2017-07-27T00:01:23.009Z,46.63
2017-07-27T00:03:54.269Z,45.67
2017-07-27T00:06:20.850Z,44.33
2017-07-27T00:08:58.532Z,38.03
2017-07-27T00:11:27.112Z,42.60
2017-07-27T00:13:53.549Z,40.90
2017-07-27T00:16:20.005Z,39.07
2017-07-27T00:18:46.346Z,42.83
2017-07-27T00:21:12.935Z,40.10
2017-07-27T00:23:39.219Z,46.03
2017-07-27T00:26:05.472Z,40.33
2017-07-27T00:28:32.319Z,38.20
2017-07-27T00:31:03.010Z,41.13
2017-07-27T00:33:49.818Z,40.73
2017-07-27T00:36:16.097Z,43.80
2017-07-27T00:38:42.784Z,47.27
2017-07-27T00:41:10.436Z,43.13
2017-07-27T00:44:01.012Z,42.27
2017-07-27T00:46:30.783Z,41.20
2017-07-27T00:48:57.204Z,40.93
2017-07-27T00:51:23.480Z,42.00
2017-07-27T00:56:45.210Z,52.00
2017-07-27T01:18:40.276Z,42.93
2017-07-27T01:21:07.142Z,37.90
2017-07-27T01:23:33.441Z,44.33
2017-07-27T01:25:59.996Z,45.00
2017-07-27T01:28:27.386Z,45.83
2017-07-27T01:30:53.789Z,40.60
2017-07-27T01:33:42.601Z,44.00
2017-07-27T01:36:09.008Z,43.13
2017-07-27T01:38:35.616Z,47.67
2017-07-27T01:41:08.336Z,50.33
2017-07-27T01:46:27.168Z,38.50
2017-07-27T01:48:58.220Z,40.27
2017-07-27T01:51:24.647Z,42.37
2017-07-27T01:56:44.153Z,44.03
2017-07-27T01:59:10.560Z,39.53
2017-07-27T02:01:36.827Z,39.00
2017-07-27T02:06:56.943Z,48.20
2017-07-27T02:12:16.243Z,43.17
2017-07-27T02:17:37.570Z,40.70
2017-07-27T02:22:39.298Z,41.43
2017-07-27T02:30:53.422Z,43.83
2017-07-27T02:36:39.515Z,42.07
2017-07-27T02:39:06.378Z,38.70
2017-07-27T02:41:47.034Z,40.67
2017-07-27T02:47:38.215Z,44.20
2017-07-27T02:50:04.638Z,48.80
2017-07-27T03:01:10.779Z,45.10
2017-07-27T03:03:38.524Z,50.20
2017-07-27T03:06:06.431Z,42.37
2017-07-27T03:08:33.201Z,43.93
2017-07-27T03:11:00.601Z,43.87
2017-07-27T03:27:57.313Z,47.80
2017-07-27T03:41:49.198Z,52.77
2017-07-27T03:47:31.465Z,47.03
2017-07-27T03:50:11.433Z,58.30
2017-07-27T03:52:42.523Z,54.17
2017-07-27T03:55:21.388Z,50.43
2017-07-27T03:57:47.798Z,46.43
2017-07-27T04:00:23.619Z,46.40
2017-07-27T04:03:10.310Z,54.97
2017-07-27T04:05:41.198Z,44.10
2017-07-27T04:08:08.151Z,48.73
2017-07-27T04:10:34.775Z,49.77
2017-07-27T04:13:03.697Z,46.77
2017-07-27T04:15:34.852Z,47.70
2017-07-27T04:18:01.386Z,47.83
2017-07-27T04:20:28.076Z,42.90
2017-07-27T04:23:00.053Z,48.13
2017-07-27T04:31:46.184Z,48.13
2017-07-27T04:34:17.396Z,47.77
2017-07-27T04:36:43.774Z,45.50
2017-07-27T04:44:56.419Z,55.07
2017-07-27T04:47:23.912Z,61.17
2017-07-27T04:49:50.285Z,48.47
2017-07-27T04:54:54.929Z,50.23
2017-07-27T05:02:53.643Z,45.80
2017-07-27T05:05:20.043Z,58.57
2017-07-27T05:07:47.404Z,43.10
2017-07-27T05:18:49.278Z,49.13
2017-07-27T05:29:47.352Z,47.13
2017-07-27T05:35:14.923Z,44.60
2017-07-27T05:38:11.198Z,45.33
2017-07-27T05:40:38.998Z,43.37
2017-07-27T05:43:06.605Z,44.03
2017-07-27T05:45:38.754Z,45.43
2017-07-27T05:48:06.272Z,47.67
2017-07-27T05:50:38.833Z,52.20
2017-07-27T05:53:06.309Z,42.93
2017-07-27T05:55:37.928Z,47.50
2017-07-27T05:58:08.556Z,44.83
2017-07-27T06:00:35.137Z,52.10
2017-07-27T06:08:47.173Z,45.70
2017-07-27T06:11:17.844Z,38.57
2017-07-27T06:16:37.826Z,40.93
2017-07-27T06:19:13.468Z,41.87
2017-07-27T06:21:40.119Z,39.63
2017-07-27T06:26:59.501Z,38.93
2017-07-27T06:29:39.203Z,39.37
2017-07-27T06:40:44.311Z,46.27
2017-07-27T06:48:55.686Z,46.23
2017-07-27T06:51:23.010Z,43.30
2017-07-27T06:54:06.588Z,40.90
2017-07-27T06:56:32.994Z,36.10
2017-07-27T06:58:59.201Z,39.40
2017-07-27T07:01:27.640Z,41.63
2017-07-27T07:03:56.466Z,39.23
2017-07-27T07:09:25.406Z,42.47
2017-07-27T07:11:51.691Z,37.13
2017-07-27T07:14:19.348Z,38.33
2017-07-27T07:16:45.708Z,34.93
2017-07-27T07:19:25.279Z,38.07
2017-07-27T07:21:51.739Z,40.50
2017-07-27T07:24:17.983Z,39.43
2017-07-27T07:26:59.214Z,34.43
2017-07-27T07:29:25.679Z,37.80
2017-07-27T07:31:51.966Z,36.40
2017-07-27T07:34:19.323Z,36.80
2017-07-27T07:36:45.660Z,37.40
2017-07-27T07:39:12.944Z,35.23
2017-07-27T07:41:39.163Z,33.77
2017-07-27T07:44:05.518Z,35.17
2017-07-27T07:46:32.652Z,35.13
2017-07-27T07:48:59.023Z,33.73
2017-07-27T07:51:25.356Z,34.43
2017-07-27T07:53:52.048Z,31.50
2017-07-27T07:59:10.472Z,33.43
2017-07-27T08:01:36.759Z,32.77
2017-07-27T08:04:04.287Z,34.60
2017-07-27T08:06:30.608Z,32.93
2017-07-27T08:09:19.983Z,35.10
2017-07-27T08:11:46.957Z,32.93
2017-07-27T08:14:19.778Z,34.20
2017-07-27T08:16:46.838Z,35.30
2017-07-27T08:19:13.471Z,31.93
2017-07-27T08:21:50.347Z,33.83
2017-07-27T08:24:17.275Z,31.20
2017-07-27T08:26:43.935Z,33.87
2017-07-27T08:29:10.319Z,32.77
2017-07-27T08:34:30.608Z,33.60
2017-07-27T08:36:57.769Z,26.90
2017-07-27T08:39:25.491Z,33.57
2017-07-27T08:44:25.595Z,36.63
2017-07-27T08:46:56.220Z,31.13
2017-07-27T08:49:22.488Z,27.30
2017-07-27T08:51:48.774Z,32.13
2017-07-27T08:54:17.096Z,27.80
2017-07-27T08:56:44.622Z,28.40
2017-07-27T08:59:11.041Z,29.23
2017-07-27T09:01:43.409Z,32.10
2017-07-27T09:07:09.012Z,30.60
2017-07-27T09:09:35.432Z,31.00
2017-07-27T09:12:02.067Z,25.40
2017-07-27T09:14:28.536Z,29.17
2017-07-27T09:16:55.433Z,27.50
2017-07-27T09:19:21.741Z,25.50
2017-07-27T09:21:48.000Z,28.73
2017-07-27T09:24:14.290Z,24.10
2017-07-27T09:26:40.806Z,25.73
2017-07-27T09:29:12.356Z,24.97
2017-07-27T09:31:38.846Z,26.67
2017-07-27T09:34:05.531Z,26.13
2017-07-27T09:36:32.170Z,25.77
2017-07-27T09:38:58.441Z,28.73
2017-07-27T09:41:24.722Z,29.70
2017-07-27T09:43:50.944Z,35.30
2017-07-27T09:46:17.439Z,31.67
2017-07-27T09:48:44.081Z,30.30
2017-07-27T09:51:10.445Z,28.90
2017-07-27T09:53:37.856Z,29.80
2017-07-27T09:56:14.439Z,29.33
2017-07-27T09:58:40.760Z,27.73
2017-07-27T10:01:07.091Z,31.17
2017-07-27T10:03:33.361Z,30.00
2017-07-27T10:05:59.714Z,28.73
2017-07-27T10:11:19.348Z,31.23
2017-07-27T10:13:45.597Z,30.97
2017-07-27T10:16:12.200Z,31.33
2017-07-27T10:18:38.524Z,38.30
2017-07-27T10:21:04.802Z,42.67
2017-07-27T10:23:31.009Z,34.10
2017-07-27T10:25:57.295Z,32.70
2017-07-27T10:28:23.708Z,30.67
2017-07-27T10:31:11.281Z,28.07
2017-07-27T10:33:37.673Z,41.07
2017-07-27T10:36:16.847Z,34.60
2017-07-27T10:38:54.934Z,33.63
2017-07-27T10:41:21.229Z,28.03
2017-07-27T10:43:47.595Z,32.80
2017-07-27T10:46:14.092Z,29.07
2017-07-27T10:48:40.376Z,25.70
2017-07-27T10:51:07.923Z,23.63
2017-07-27T10:53:34.168Z,29.83
2017-07-27T10:56:00.333Z,25.80
2017-07-27T10:58:26.492Z,24.67
2017-07-27T11:00:52.652Z,26.03
2017-07-27T11:03:18.868Z,29.30
2017-07-27T11:05:45.094Z,30.10
2017-07-27T11:08:11.325Z,25.13
2017-07-27T11:10:37.515Z,21.13
2017-07-27T11:13:03.793Z,21.93
2017-07-27T11:15:29.947Z,21.07
2017-07-27T11:17:56.130Z,21.73
2017-07-27T11:20:22.302Z,24.33
2017-07-27T11:22:48.526Z,22.83
2017-07-27T11:25:14.787Z,22.77
2017-07-27T11:27:41.194Z,29.70
2017-07-27T11:30:07.451Z,28.73
2017-07-27T11:32:33.600Z,26.27
2017-07-27T11:34:59.771Z,23.80
2017-07-27T11:37:25.907Z,28.93
2017-07-27T11:39:52.075Z,29.93
2017-07-27T11:42:18.250Z,23.30
2017-07-27T11:44:44.476Z,28.20
2017-07-27T11:47:10.649Z,28.60
2017-07-27T11:49:36.826Z,24.03
2017-07-27T11:52:03.507Z,22.20
2017-07-27T11:54:30.604Z,22.90
2017-07-27T11:56:57.008Z,25.63
2017-07-27T11:59:23.468Z,23.03
2017-07-27T12:01:50.184Z,24.60
2017-07-27T12:04:16.561Z,28.00
2017-07-27T12:06:43.021Z,26.20
2017-07-27T12:09:09.493Z,23.20
2017-07-27T12:11:35.784Z,23.27
2017-07-27T12:14:02.777Z,23.07
2017-07-27T12:19:21.728Z,27.67
2017-07-27T12:21:59.047Z,29.00
2017-07-27T12:24:25.685Z,31.07
2017-07-27T12:26:53.384Z,27.27
2017-07-27T12:29:20.548Z,24.70
2017-07-27T12:31:46.839Z,22.50
2017-07-27T12:34:38.573Z,23.30
2017-07-27T12:37:04.947Z,23.20
2017-07-27T12:39:31.293Z,23.60
2017-07-27T12:41:58.119Z,22.50
2017-07-27T12:44:28.030Z,23.10
2017-07-27T12:46:54.628Z,24.30
2017-07-27T12:49:21.036Z,24.10
2017-07-27T12:51:49.096Z,22.40
2017-07-27T12:54:19.031Z,22.17
2017-07-27T12:59:39.510Z,25.63
2017-07-27T13:02:06.214Z,21.33
2017-07-27T13:04:33.200Z,22.70
2017-07-27T13:07:01.500Z,21.90
2017-07-27T13:09:27.936Z,25.97
2017-07-27T13:12:00.199Z,23.43
2017-07-27T13:14:26.840Z,22.47
2017-07-27T13:19:47.315Z,21.90
2017-07-27T13:25:06.697Z,23.77
2017-07-27T13:27:33.498Z,23.10
2017-07-27T13:30:00.987Z,21.10
2017-07-27T13:32:27.359Z,22.40
2017-07-27T13:34:54.190Z,19.13
2017-07-27T13:45:46.381Z,19.10
2017-07-27T13:48:26.480Z,19.10
2017-07-27T13:50:52.848Z,19.67
2017-07-27T13:53:24.454Z,17.67
2017-07-27T13:55:52.546Z,18.50
2017-07-27T13:58:19.908Z,20.00
2017-07-27T14:00:49.376Z,19.47
2017-07-27T14:05:53.558Z,21.00
2017-07-27T14:08:19.890Z,21.10
2017-07-27T14:13:41.423Z,18.20
2017-07-27T14:19:00.113Z,19.90
2017-07-27T14:21:26.382Z,19.80
2017-07-27T14:24:05.420Z,20.23
2017-07-27T14:26:31.835Z,22.10
2017-07-27T14:31:54.083Z,18.50
2017-07-27T14:34:21.051Z,22.70
2017-07-27T14:36:49.116Z,17.20
2017-07-27T14:42:08.494Z,24.30
2017-07-27T14:44:34.972Z,22.17
2017-07-27T14:47:01.374Z,20.10
2017-07-27T14:49:28.164Z,19.27
2017-07-27T14:52:09.638Z,19.23
2017-07-27T14:54:36.845Z,19.63
2017-07-27T14:57:05.140Z,18.70
2017-07-27T14:59:31.587Z,19.57
2017-07-27T15:02:00.710Z,19.60
2017-07-27T15:04:27.427Z,18.13
2017-07-27T15:09:28.687Z,20.83
2017-07-27T15:11:55.116Z,17.67
2017-07-27T15:14:21.668Z,19.97
2017-07-27T15:16:48.474Z,17.30
2017-07-27T15:19:15.213Z,20.80
2017-07-27T15:21:42.324Z,19.40
2017-07-27T15:24:09.194Z,20.97
2017-07-27T15:26:36.110Z,24.30
2017-07-27T15:31:35.101Z,19.10
2017-07-27T15:34:01.404Z,22.63
2017-07-27T15:36:27.763Z,26.97
2017-07-27T15:38:54.115Z,32.50
2017-07-27T15:41:20.539Z,29.50
2017-07-27T15:43:47.181Z,27.93
2017-07-27T15:46:13.575Z,28.20
2017-07-27T15:48:39.768Z,26.37
2017-07-27T15:51:05.996Z,21.00
2017-07-27T15:53:32.388Z,22.73
2017-07-27T15:55:59.652Z,19.13
2017-07-27T15:58:26.147Z,17.60
2017-07-27T16:00:57.028Z,18.77
2017-07-27T16:03:24.367Z,22.97
2017-07-27T16:08:32.516Z,21.93
2017-07-27T16:10:59.041Z,20.73
2017-07-27T16:16:18.027Z,18.27
2017-07-27T16:18:45.873Z,18.53
2017-07-27T16:21:12.466Z,20.37
2017-07-27T16:23:38.869Z,17.70
2017-07-27T16:26:05.252Z,19.37
2017-07-27T16:28:31.966Z,20.60
2017-07-27T16:30:58.531Z,20.03
2017-07-27T16:33:25.227Z,23.77
2017-07-27T16:35:51.636Z,27.27
2017-07-27T16:38:19.187Z,25.27
2017-07-27T16:40:45.635Z,21.60
2017-07-27T16:43:12.861Z,22.93
2017-07-27T16:45:40.506Z,24.57
2017-07-27T16:48:08.056Z,19.23
2017-07-27T16:50:34.678Z,19.87
2017-07-27T16:53:01.125Z,31.83
2017-07-27T16:55:27.507Z,18.40
2017-07-27T16:57:53.785Z,20.73
2017-07-27T17:00:20.042Z,35.30
2017-07-27T17:02:46.353Z,28.30
2017-07-27T17:05:12.955Z,28.70
2017-07-27T17:07:39.351Z,19.20
2017-07-27T17:10:05.779Z,32.27
2017-07-27T17:12:32.086Z,21.13
2017-07-27T17:14:58.435Z,22.63
2017-07-27T17:17:24.722Z,26.27
2017-07-27T17:19:51.080Z,20.20
2017-07-27T17:22:17.597Z,20.53
2017-07-27T17:24:43.831Z,21.00
2017-07-27T17:27:10.097Z,22.10
2017-07-27T17:29:36.419Z,26.37
2017-07-27T17:32:02.828Z,26.73
2017-07-27T17:34:31.073Z,25.33
2017-07-27T17:36:57.466Z,27.27
2017-07-27T17:39:23.844Z,30.43
2017-07-27T17:41:50.141Z,36.43
2017-07-27T17:44:16.512Z,50.07
2017-07-27T17:46:42.843Z,32.30
2017-07-27T17:49:09.101Z,28.97
2017-07-27T17:51:35.410Z,25.20
2017-07-27T17:54:01.719Z,27.30
2017-07-27T17:56:28.218Z,29.33
2017-07-27T17:58:54.969Z,26.67
2017-07-27T18:01:22.434Z,27.40
2017-07-27T18:03:49.025Z,22.63
2017-07-27T18:06:15.643Z,22.50
2017-07-27T18:08:42.793Z,27.23
2017-07-27T18:11:09.121Z,28.53
2017-07-27T18:13:35.483Z,23.63
2017-07-27T18:16:01.857Z,25.03
2017-07-27T18:18:28.372Z,26.63
2017-07-27T18:20:54.695Z,23.10
2017-07-27T18:23:20.920Z,27.80
2017-07-27T18:25:47.366Z,32.43
2017-07-27T18:28:13.781Z,27.63
2017-07-27T18:30:40.856Z,24.03
2017-07-27T18:33:07.312Z,23.17
2017-07-27T18:35:33.748Z,26.03
2017-07-27T18:38:00.142Z,34.03
2017-07-27T18:40:26.575Z,24.73
2017-07-27T18:42:52.911Z,25.83
2017-07-27T18:45:19.760Z,23.83
2017-07-27T18:47:47.299Z,26.73
2017-07-27T18:50:14.443Z,22.60
2017-07-27T18:52:40.950Z,22.37
2017-07-27T18:55:07.293Z,23.90
2017-07-27T18:57:33.603Z,26.03
2017-07-27T18:59:59.863Z,22.83
2017-07-27T19:02:26.303Z,26.03
2017-07-27T19:04:53.496Z,24.10
2017-07-27T19:07:19.803Z,28.33
2017-07-27T19:09:47.247Z,25.97
2017-07-27T19:12:13.530Z,25.03
2017-07-27T19:14:39.766Z,24.47
2017-07-27T19:17:06.051Z,39.53
2017-07-27T19:19:32.522Z,30.80
2017-07-27T19:21:58.800Z,29.53
2017-07-27T19:24:25.184Z,26.03
2017-07-27T19:26:51.567Z,28.47
2017-07-27T19:29:17.998Z,35.83
2017-07-27T19:31:44.194Z,31.20
2017-07-27T19:34:10.585Z,25.13
2017-07-27T19:36:36.878Z,27.80
2017-07-27T19:39:03.209Z,26.47
2017-07-27T19:41:29.603Z,30.97
2017-07-27T19:43:56.130Z,28.60
2017-07-27T19:46:22.447Z,27.43
2017-07-27T19:48:48.953Z,38.50
2017-07-27T19:51:15.262Z,32.47
2017-07-27T19:53:41.540Z,42.07
2017-07-27T19:56:07.859Z,27.17
2017-07-27T19:58:34.182Z,31.90
2017-07-27T20:01:00.743Z,30.53
2017-07-27T20:03:27.025Z,39.37
2017-07-27T20:05:53.266Z,31.70
2017-07-27T20:08:19.607Z,30.50
2017-07-27T20:10:45.928Z,29.53
2017-07-27T20:13:13.307Z,34.90
2017-07-27T20:15:39.553Z,29.83
2017-07-27T20:18:06.095Z,30.53
2017-07-27T20:20:32.406Z,32.93
2017-07-27T20:22:59.231Z,29.30
2017-07-27T20:25:26.254Z,28.93
2017-07-27T20:27:52.861Z,26.43
2017-07-27T20:30:20.480Z,26.90
2017-07-27T20:32:47.036Z,32.70
2017-07-27T20:35:13.428Z,30.80
2017-07-27T20:37:39.797Z,31.13
2017-07-27T20:40:06.076Z,33.83
2017-07-27T20:42:32.377Z,30.27
2017-07-27T20:44:58.692Z,28.03
2017-07-27T20:47:25.438Z,30.57
2017-07-27T20:52:44.195Z,30.93
2017-07-27T20:55:10.543Z,33.33
2017-07-27T20:57:37.709Z,31.50
2017-07-27T21:00:05.423Z,30.70
2017-07-27T21:02:32.138Z,27.33
2017-07-27T21:04:59.864Z,29.87
2017-07-27T21:07:30.530Z,29.40
2017-07-27T21:09:57.005Z,31.50
2017-07-27T21:12:23.723Z,31.13
2017-07-27T21:14:53.074Z,31.70
2017-07-27T21:17:19.340Z,33.77
2017-07-27T21:19:45.693Z,27.70
2017-07-27T21:22:12.354Z,32.17
2017-07-27T21:24:38.646Z,29.33
2017-07-27T21:27:05.049Z,32.20
2017-07-27T21:29:31.331Z,32.83
2017-07-27T21:31:57.570Z,31.60
2017-07-27T21:34:23.735Z,29.70
2017-07-27T21:36:49.994Z,29.80
2017-07-27T21:39:16.222Z,29.57
2017-07-27T21:41:42.548Z,28.93
2017-07-27T21:44:09.865Z,30.80
2017-07-27T21:46:36.466Z,36.03
2017-07-27T21:49:02.831Z,31.83
2017-07-27T21:51:29.644Z,31.73
2017-07-27T21:53:57.502Z,30.80
2017-07-27T21:56:23.828Z,35.20
2017-07-27T21:58:56.755Z,34.77
2017-07-27T22:01:23.301Z,33.90
2017-07-27T22:03:49.606Z,36.80
2017-07-27T22:06:17.917Z,29.80
2017-07-27T22:08:44.312Z,30.23
2017-07-27T22:11:16.075Z,31.10
2017-07-27T22:13:42.311Z,32.60
2017-07-27T22:16:08.532Z,32.13
2017-07-27T22:18:34.776Z,32.60
2017-07-27T22:21:01.175Z,32.43
2017-07-27T22:23:27.442Z,30.50
2017-07-27T22:25:53.915Z,36.43
2017-07-27T22:28:23.103Z,32.00
2017-07-27T22:30:49.565Z,40.83
2017-07-27T22:33:16.287Z,35.00
2017-07-27T22:35:42.865Z,33.23
2017-07-27T22:38:09.733Z,34.73
2017-07-27T22:40:36.084Z,30.03
2017-07-27T22:43:02.939Z,30.17
2017-07-27T22:45:29.405Z,43.33
2017-07-27T22:47:55.801Z,34.90
2017-07-27T22:50:22.082Z,32.73
2017-07-27T22:52:49.988Z,32.10
2017-07-27T22:55:16.401Z,30.63
2017-07-27T22:57:42.951Z,38.87
2017-07-27T23:00:09.798Z,39.87
2017-07-27T23:02:36.763Z,34.27
2017-07-27T23:05:03.185Z,35.73
2017-07-27T23:07:29.457Z,35.17
2017-07-27T23:09:55.760Z,32.07
2017-07-27T23:12:22.176Z,34.43
2017-07-27T23:14:48.717Z,40.67
2017-07-27T23:17:16.346Z,35.43
2017-07-27T23:19:42.745Z,36.40
2017-07-27T23:22:09.083Z,37.93
2017-07-27T23:24:35.389Z,34.63
2017-07-27T23:27:01.634Z,34.87
2017-07-27T23:29:28.200Z,33.23
2017-07-27T23:31:54.540Z,35.50
2017-07-27T23:34:21.149Z,33.53
2017-07-27T23:36:47.438Z,33.73
2017-07-27T23:39:13.714Z,36.03
2017-07-27T23:41:42.868Z,36.47
2017-07-27T23:44:09.205Z,35.93
2017-07-27T23:46:35.458Z,33.30
2017-07-27T23:49:01.827Z,34.40
2017-07-27T23:51:28.174Z,37.73
2017-07-27T23:53:54.703Z,36.93
2017-07-27T23:56:21.336Z,37.03
2017-07-27T23:58:48.608Z,44.60
